Terminal Aerodrome Forecast
Issued by NWS

Home | Current Version | Previous Version | Text Only | Print | Product List | Glossary On
Versions: 1 2 3 4 5 6 7 8 9 10 11 12 13 14 15 16 17 18 19
000
FTUS44 KLIX 190547
TAFMSY
TAF
KMSY 190547Z 1906/2006 17010KT 5SM BR VCSH OVC004
     FM191100 16006KT 2SM BR VCSH OVC003
     FM191500 19012KT 5SM BR VCSH OVC035
     FM192000 21013KT 6SM -SHRA VCTS OVC035CB
      TEMPO 1920/1923 3SM TSRA BKN025CB
     FM200300 20006KT 4SM BR OVC004=

USA.gov is the U.S. government's official web portal to all federal, state and local government web resources and services.